sensor_id;sensor_type;location;lat;lon;timestamp;temperature;humidity
15455;DHT22;21057;51.024;7.540;2023-12-22T00:01:54;4.90;99.90
15455;DHT22;21057;51.024;7.540;2023-12-22T00:04:20;5.00;99.90
15455;DHT22;21057;51.024;7.540;2023-12-22T00:06:47;5.00;99.90
15455;DHT22;21057;51.024;7.540;2023-12-22T00:09:14;4.80;99.90
15455;DHT22;21057;51.024;7.540;2023-12-22T00:11:42;5.00;99.90
15455;DHT22;21057;51.024;7.540;2023-12-22T00:14:09;5.00;99.90
15455;DHT22;21057;51.024;7.540;2023-12-22T00:16:37;4.80;99.90
15455;DHT22;21057;51.024;7.540;2023-12-22T00:19:04;4.90;99.90
15455;DHT22;21057;51.024;7.540;2023-12-22T00:21:30;4.90;99.90
15455;DHT22;21057;51.024;7.540;2023-12-22T00:23:58;4.70;99.90
15455;DHT22;21057;51.024;7.540;2023-12-22T00:26:25;4.80;99.90
15455;DHT22;21057;51.024;7.540;2023-12-22T00:28:53;4.80;99.90
15455;DHT22;21057;51.024;7.540;2023-12-22T00:31:19;4.80;99.90
15455;DHT22;21057;51.024;7.540;2023-12-22T00:33:46;4.90;99.90
15455;DHT22;21057;51.024;7.540;2023-12-22T00:36:13;5.00;99.90
15455;DHT22;21057;51.024;7.540;2023-12-22T00:38:40;5.10;99.90
15455;DHT22;21057;51.024;7.540;2023-12-22T00:41:07;5.00;99.90
15455;DHT22;21057;51.024;7.540;2023-12-22T00:43:33;4.80;99.90
15455;DHT22;21057;51.024;7.540;2023-12-22T00:46:02;4.90;99.90
15455;DHT22;21057;51.024;7.540;2023-12-22T00:48:28;4.80;99.90
15455;DHT22;21057;51.024;7.540;2023-12-22T00:50:55;4.80;99.90
15455;DHT22;21057;51.024;7.540;2023-12-22T00:53:22;4.90;99.90
15455;DHT22;21057;51.024;7.540;2023-12-22T00:55:49;5.00;99.90
15455;DHT22;21057;51.024;7.540;2023-12-22T00:58:15;5.00;99.90
15455;DHT22;21057;51.024;7.540;2023-12-22T01:00:42;5.20;99.90
15455;DHT22;21057;51.024;7.540;2023-12-22T01:03:10;5.00;99.90
15455;DHT22;21057;51.024;7.540;2023-12-22T01:05:38;5.10;99.90
15455;DHT22;21057;51.024;7.540;2023-12-22T01:08:05;5.20;99.90
15455;DHT22;21057;51.024;7.540;2023-12-22T01:10:32;5.20;99.90
15455;DHT22;21057;51.024;7.540;2023-12-22T01:12:59;5.20;99.90
15455;DHT22;21057;51.024;7.540;2023-12-22T01:15:26;5.20;99.90
15455;DHT22;21057;51.024;7.540;2023-12-22T01:17:53;5.30;99.90
15455;DHT22;21057;51.024;7.540;2023-12-22T01:20:21;5.40;99.90
15455;DHT22;21057;51.024;7.540;2023-12-22T01:22:48;5.20;99.90
15455;DHT22;21057;51.024;7.540;2023-12-22T01:25:14;5.20;99.90
15455;DHT22;21057;51.024;7.540;2023-12-22T01:27:41;5.30;99.90
15455;DHT22;21057;51.024;7.540;2023-12-22T01:30:08;5.30;99.90
15455;DHT22;21057;51.024;7.540;2023-12-22T01:32:35;5.00;99.90
15455;DHT22;21057;51.024;7.540;2023-12-22T01:35:02;5.20;99.90
15455;DHT22;21057;51.024;7.540;2023-12-22T01:37:36;5.30;99.90
15455;DHT22;21057;51.024;7.540;2023-12-22T01:40:04;5.50;99.90
15455;DHT22;21057;51.024;7.540;2023-12-22T01:42:31;5.60;99.90
15455;DHT22;21057;51.024;7.540;2023-12-22T01:44:58;5.40;99.90
15455;DHT22;21057;51.024;7.540;2023-12-22T01:47:25;5.30;99.90
15455;DHT22;21057;51.024;7.540;2023-12-22T01:49:52;5.40;99.90
15455;DHT22;21057;51.024;7.540;2023-12-22T01:52:19;5.40;99.90
15455;DHT22;21057;51.024;7.540;2023-12-22T01:54:48;5.70;99.90
15455;DHT22;21057;51.024;7.540;2023-12-22T01:57:17;5.60;99.90
15455;DHT22;21057;51.024;7.540;2023-12-22T01:59:45;5.50;99.90
15455;DHT22;21057;51.024;7.540;2023-12-22T02:02:13;5.50;99.90
15455;DHT22;21057;51.024;7.540;2023-12-22T02:04:40;5.40;99.90
15455;DHT22;21057;51.024;7.540;2023-12-22T02:07:08;5.50;99.90
15455;DHT22;21057;51.024;7.540;2023-12-22T02:09:36;5.50;99.90
15455;DHT22;21057;51.024;7.540;2023-12-22T02:12:04;5.70;99.90
15455;DHT22;21057;51.024;7.540;2023-12-22T02:14:31;5.80;99.90
15455;DHT22;21057;51.024;7.540;2023-12-22T02:17:06;5.80;99.90
15455;DHT22;21057;51.024;7.540;2023-12-22T02:19:41;5.60;99.90
15455;DHT22;21057;51.024;7.540;2023-12-22T02:22:10;5.20;99.90
15455;DHT22;21057;51.024;7.540;2023-12-22T02:24:39;5.10;99.90
15455;DHT22;21057;51.024;7.540;2023-12-22T02:27:13;5.10;99.90
15455;DHT22;21057;51.024;7.540;2023-12-22T02:29:46;5.00;99.90
15455;DHT22;21057;51.024;7.540;2023-12-22T02:32:22;5.10;99.90
15455;DHT22;21057;51.024;7.540;2023-12-22T02:34:50;5.00;99.90
15455;DHT22;21057;51.024;7.540;2023-12-22T02:37:20;4.90;99.90
15455;DHT22;21057;51.024;7.540;2023-12-22T02:39:49;4.90;99.90
15455;DHT22;21057;51.024;7.540;2023-12-22T02:42:17;5.10;99.90
15455;DHT22;21057;51.024;7.540;2023-12-22T02:44:45;5.10;99.90
15455;DHT22;21057;51.024;7.540;2023-12-22T02:47:12;5.00;99.90
15455;DHT22;21057;51.024;7.540;2023-12-22T02:49:39;4.80;99.90
15455;DHT22;21057;51.024;7.540;2023-12-22T02:52:05;4.80;99.90
15455;DHT22;21057;51.024;7.540;2023-12-22T02:54:32;4.90;99.90
15455;DHT22;21057;51.024;7.540;2023-12-22T02:57:01;4.50;99.90
15455;DHT22;21057;51.024;7.540;2023-12-22T02:59:28;4.20;99.90
15455;DHT22;21057;51.024;7.540;2023-12-22T03:01:54;4.10;99.90
15455;DHT22;21057;51.024;7.540;2023-12-22T03:04:21;4.00;99.90
15455;DHT22;21057;51.024;7.540;2023-12-22T03:06:48;4.00;99.90
15455;DHT22;21057;51.024;7.540;2023-12-22T03:09:15;4.20;99.90
15455;DHT22;21057;51.024;7.540;2023-12-22T03:11:41;4.40;99.90
15455;DHT22;21057;51.024;7.540;2023-12-22T03:14:10;4.40;99.90
15455;DHT22;21057;51.024;7.540;2023-12-22T03:16:36;4.20;99.90
15455;DHT22;21057;51.024;7.540;2023-12-22T03:19:03;4.30;99.90
15455;DHT22;21057;51.024;7.540;2023-12-22T03:21:30;4.60;99.90
15455;DHT22;21057;51.024;7.540;2023-12-22T03:23:57;4.60;99.90
15455;DHT22;21057;51.024;7.540;2023-12-22T03:26:26;4.60;99.90
15455;DHT22;21057;51.024;7.540;2023-12-22T03:28:53;4.70;99.90
15455;DHT22;21057;51.024;7.540;2023-12-22T03:31:21;4.90;99.90
15455;DHT22;21057;51.024;7.540;2023-12-22T03:33:48;5.00;99.90
15455;DHT22;21057;51.024;7.540;2023-12-22T03:36:14;4.90;99.90
15455;DHT22;21057;51.024;7.540;2023-12-22T03:38:41;4.80;99.90
15455;DHT22;21057;51.024;7.540;2023-12-22T03:41:08;4.70;99.90
15455;DHT22;21057;51.024;7.540;2023-12-22T03:43:35;4.90;99.90
15455;DHT22;21057;51.024;7.540;2023-12-22T03:46:02;4.90;99.90
15455;DHT22;21057;51.024;7.540;2023-12-22T03:48:30;5.10;99.90
15455;DHT22;21057;51.024;7.540;2023-12-22T03:50:57;5.20;99.90
15455;DHT22;21057;51.024;7.540;2023-12-22T03:53:24;5.30;99.90
15455;DHT22;21057;51.024;7.540;2023-12-22T03:55:51;5.20;99.90
15455;DHT22;21057;51.024;7.540;2023-12-22T03:58:18;5.30;99.90
15455;DHT22;21057;51.024;7.540;2023-12-22T04:00:44;5.50;99.90
15455;DHT22;21057;51.024;7.540;2023-12-22T04:03:11;5.40;99.90
15455;DHT22;21057;51.024;7.540;2023-12-22T04:05:39;5.40;99.90
15455;DHT22;21057;51.024;7.540;2023-12-22T04:08:06;5.10;99.90
15455;DHT22;21057;51.024;7.540;2023-12-22T04:10:33;5.20;99.90
15455;DHT22;21057;51.024;7.540;2023-12-22T04:13:00;5.20;99.90
15455;DHT22;21057;51.024;7.540;2023-12-22T04:15:26;5.30;99.90
15455;DHT22;21057;51.024;7.540;2023-12-22T04:17:53;5.20;99.90
15455;DHT22;21057;51.024;7.540;2023-12-22T04:20:20;5.20;99.90
15455;DHT22;21057;51.024;7.540;2023-12-22T04:22:48;5.10;99.90
15455;DHT22;21057;51.024;7.540;2023-12-22T04:25:15;5.10;99.90
15455;DHT22;21057;51.024;7.540;2023-12-22T04:27:42;5.10;99.90
15455;DHT22;21057;51.024;7.540;2023-12-22T04:30:09;5.10;99.90
15455;DHT22;21057;51.024;7.540;2023-12-22T04:32:36;5.20;99.90
15455;DHT22;21057;51.024;7.540;2023-12-22T04:35:04;5.40;99.90
15455;DHT22;21057;51.024;7.540;2023-12-22T04:37:30;5.40;99.90
15455;DHT22;21057;51.024;7.540;2023-12-22T04:39:59;5.50;99.90
15455;DHT22;21057;51.024;7.540;2023-12-22T04:42:26;5.60;99.90
15455;DHT22;21057;51.024;7.540;2023-12-22T04:44:53;5.60;99.90
15455;DHT22;21057;51.024;7.540;2023-12-22T04:47:20;5.50;99.90
15455;DHT22;21057;51.024;7.540;2023-12-22T04:49:47;5.50;99.90
15455;DHT22;21057;51.024;7.540;2023-12-22T04:52:14;5.40;99.90
15455;DHT22;21057;51.024;7.540;2023-12-22T04:54:41;5.30;99.90
15455;DHT22;21057;51.024;7.540;2023-12-22T04:57:09;5.10;99.90
15455;DHT22;21057;51.024;7.540;2023-12-22T04:59:36;5.00;99.90
15455;DHT22;21057;51.024;7.540;2023-12-22T05:02:03;5.00;99.90
15455;DHT22;21057;51.024;7.540;2023-12-22T05:04:29;5.00;99.90
15455;DHT22;21057;51.024;7.540;2023-12-22T05:06:56;5.10;99.90
15455;DHT22;21057;51.024;7.540;2023-12-22T05:09:23;5.40;99.90
15455;DHT22;21057;51.024;7.540;2023-12-22T05:11:50;5.40;99.90
15455;DHT22;21057;51.024;7.540;2023-12-22T05:14:18;5.20;99.90
15455;DHT22;21057;51.024;7.540;2023-12-22T05:16:45;5.20;99.90
15455;DHT22;21057;51.024;7.540;2023-12-22T05:19:12;5.20;99.90
15455;DHT22;21057;51.024;7.540;2023-12-22T05:21:39;5.30;99.90
15455;DHT22;21057;51.024;7.540;2023-12-22T05:24:05;5.30;99.90
15455;DHT22;21057;51.024;7.540;2023-12-22T05:26:32;5.40;99.90
15455;DHT22;21057;51.024;7.540;2023-12-22T05:29:00;5.40;99.90
15455;DHT22;21057;51.024;7.540;2023-12-22T05:31:28;5.40;99.90
15455;DHT22;21057;51.024;7.540;2023-12-22T05:33:56;5.40;99.90
15455;DHT22;21057;51.024;7.540;2023-12-22T05:36:24;5.40;99.90
15455;DHT22;21057;51.024;7.540;2023-12-22T05:38:51;5.50;99.90
15455;DHT22;21057;51.024;7.540;2023-12-22T05:41:18;5.60;99.90
15455;DHT22;21057;51.024;7.540;2023-12-22T05:43:45;5.70;99.90
15455;DHT22;21057;51.024;7.540;2023-12-22T05:46:11;5.70;99.90
15455;DHT22;21057;51.024;7.540;2023-12-22T05:48:40;5.50;99.90
15455;DHT22;21057;51.024;7.540;2023-12-22T05:51:06;5.40;99.90
15455;DHT22;21057;51.024;7.540;2023-12-22T05:53:38;5.50;99.90
15455;DHT22;21057;51.024;7.540;2023-12-22T05:56:16;5.50;99.90
15455;DHT22;21057;51.024;7.540;2023-12-22T05:58:43;5.40;99.90
15455;DHT22;21057;51.024;7.540;2023-12-22T06:01:14;5.40;99.90
15455;DHT22;21057;51.024;7.540;2023-12-22T06:03:42;5.40;99.90
15455;DHT22;21057;51.024;7.540;2023-12-22T06:06:09;5.70;99.90
15455;DHT22;21057;51.024;7.540;2023-12-22T06:08:37;5.70;99.90
15455;DHT22;21057;51.024;7.540;2023-12-22T06:11:04;5.70;99.90
15455;DHT22;21057;51.024;7.540;2023-12-22T06:13:31;5.80;99.90
15455;DHT22;21057;51.024;7.540;2023-12-22T06:15:58;5.90;99.90
15455;DHT22;21057;51.024;7.540;2023-12-22T06:18:25;5.90;99.90
15455;DHT22;21057;51.024;7.540;2023-12-22T06:20:53;6.00;99.90
15455;DHT22;21057;51.024;7.540;2023-12-22T06:23:20;6.00;99.90
15455;DHT22;21057;51.024;7.540;2023-12-22T06:25:46;6.10;99.90
15455;DHT22;21057;51.024;7.540;2023-12-22T06:28:13;5.70;99.90
15455;DHT22;21057;51.024;7.540;2023-12-22T06:30:42;5.40;99.90
15455;DHT22;21057;51.024;7.540;2023-12-22T06:33:09;5.30;99.90
15455;DHT22;21057;51.024;7.540;2023-12-22T06:35:36;5.30;99.90
15455;DHT22;21057;51.024;7.540;2023-12-22T06:38:07;5.40;99.90
15455;DHT22;21057;51.024;7.540;2023-12-22T06:40:37;5.40;99.90
15455;DHT22;21057;51.024;7.540;2023-12-22T06:43:04;5.50;99.90
15455;DHT22;21057;51.024;7.540;2023-12-22T06:45:31;5.60;99.90
15455;DHT22;21057;51.024;7.540;2023-12-22T06:47:57;5.70;99.90
15455;DHT22;21057;51.024;7.540;2023-12-22T06:50:24;5.50;99.90
15455;DHT22;21057;51.024;7.540;2023-12-22T06:52:51;5.60;99.90
15455;DHT22;21057;51.024;7.540;2023-12-22T06:55:19;5.60;99.90
15455;DHT22;21057;51.024;7.540;2023-12-22T06:57:46;5.70;99.90
15455;DHT22;21057;51.024;7.540;2023-12-22T07:00:14;5.70;99.90
15455;DHT22;21057;51.024;7.540;2023-12-22T07:02:41;5.80;99.90
15455;DHT22;21057;51.024;7.540;2023-12-22T07:05:30;5.90;99.90
15455;DHT22;21057;51.024;7.540;2023-12-22T07:07:57;6.00;99.90
15455;DHT22;21057;51.024;7.540;2023-12-22T07:10:25;5.80;99.90
15455;DHT22;21057;51.024;7.540;2023-12-22T07:12:52;5.80;99.90
15455;DHT22;21057;51.024;7.540;2023-12-22T07:15:19;5.80;99.90
15455;DHT22;21057;51.024;7.540;2023-12-22T07:17:46;5.80;99.90
15455;DHT22;21057;51.024;7.540;2023-12-22T07:20:13;5.80;99.90
15455;DHT22;21057;51.024;7.540;2023-12-22T07:22:40;6.00;99.90
15455;DHT22;21057;51.024;7.540;2023-12-22T07:25:07;6.10;99.90
15455;DHT22;21057;51.024;7.540;2023-12-22T07:27:36;6.30;99.90
15455;DHT22;21057;51.024;7.540;2023-12-22T07:30:03;6.50;99.90
15455;DHT22;21057;51.024;7.540;2023-12-22T07:32:30;6.70;99.90
15455;DHT22;21057;51.024;7.540;2023-12-22T07:34:57;6.50;99.90
15455;DHT22;21057;51.024;7.540;2023-12-22T07:37:24;6.50;99.90
15455;DHT22;21057;51.024;7.540;2023-12-22T07:39:50;6.50;99.90
15455;DHT22;21057;51.024;7.540;2023-12-22T07:42:17;6.70;99.90
15455;DHT22;21057;51.024;7.540;2023-12-22T07:44:46;6.60;99.90
15455;DHT22;21057;51.024;7.540;2023-12-22T07:47:12;6.70;99.90
15455;DHT22;21057;51.024;7.540;2023-12-22T07:49:39;6.80;99.90
15455;DHT22;21057;51.024;7.540;2023-12-22T07:52:06;6.70;99.90
15455;DHT22;21057;51.024;7.540;2023-12-22T07:54:33;6.70;99.90
15455;DHT22;21057;51.024;7.540;2023-12-22T07:56:59;6.80;99.90
15455;DHT22;21057;51.024;7.540;2023-12-22T07:59:26;6.50;99.90
15455;DHT22;21057;51.024;7.540;2023-12-22T08:01:54;6.30;99.90
15455;DHT22;21057;51.024;7.540;2023-12-22T08:04:21;6.40;99.90
15455;DHT22;21057;51.024;7.540;2023-12-22T08:06:48;6.40;99.90
15455;DHT22;21057;51.024;7.540;2023-12-22T08:09:15;6.40;99.90
15455;DHT22;21057;51.024;7.540;2023-12-22T08:11:41;6.40;99.90
15455;DHT22;21057;51.024;7.540;2023-12-22T08:14:11;6.40;99.90
15455;DHT22;21057;51.024;7.540;2023-12-22T08:16:38;6.40;99.90
15455;DHT22;21057;51.024;7.540;2023-12-22T08:19:06;6.50;99.90
15455;DHT22;21057;51.024;7.540;2023-12-22T08:21:34;6.50;99.90
15455;DHT22;21057;51.024;7.540;2023-12-22T08:24:00;6.50;99.90
15455;DHT22;21057;51.024;7.540;2023-12-22T08:26:27;6.40;99.90
15455;DHT22;21057;51.024;7.540;2023-12-22T08:28:54;6.50;99.90
15455;DHT22;21057;51.024;7.540;2023-12-22T08:31:21;6.50;99.90
15455;DHT22;21057;51.024;7.540;2023-12-22T08:33:47;6.50;99.90
15455;DHT22;21057;51.024;7.540;2023-12-22T08:36:15;6.60;99.90
15455;DHT22;21057;51.024;7.540;2023-12-22T08:38:42;6.80;99.90
15455;DHT22;21057;51.024;7.540;2023-12-22T08:41:09;6.70;99.90
15455;DHT22;21057;51.024;7.540;2023-12-22T08:43:37;6.80;99.90
15455;DHT22;21057;51.024;7.540;2023-12-22T08:46:05;6.90;99.90
15455;DHT22;21057;51.024;7.540;2023-12-22T08:48:32;6.90;99.90
15455;DHT22;21057;51.024;7.540;2023-12-22T08:50:58;6.90;99.90
15455;DHT22;21057;51.024;7.540;2023-12-22T08:53:27;7.00;99.90
15455;DHT22;21057;51.024;7.540;2023-12-22T08:55:55;7.00;99.90
15455;DHT22;21057;51.024;7.540;2023-12-22T08:58:22;7.00;99.90
15455;DHT22;21057;51.024;7.540;2023-12-22T09:00:49;6.90;99.90
15455;DHT22;21057;51.024;7.540;2023-12-22T09:03:17;6.90;99.90
15455;DHT22;21057;51.024;7.540;2023-12-22T09:05:44;7.10;99.90
15455;DHT22;21057;51.024;7.540;2023-12-22T09:08:10;7.20;99.90
15455;DHT22;21057;51.024;7.540;2023-12-22T09:10:38;7.10;99.90
15455;DHT22;21057;51.024;7.540;2023-12-22T09:13:05;7.20;99.90
15455;DHT22;21057;51.024;7.540;2023-12-22T09:15:32;7.10;99.90
15455;DHT22;21057;51.024;7.540;2023-12-22T09:17:59;7.00;99.90
15455;DHT22;21057;51.024;7.540;2023-12-22T09:20:26;6.90;99.90
15455;DHT22;21057;51.024;7.540;2023-12-22T09:22:54;6.90;99.90
15455;DHT22;21057;51.024;7.540;2023-12-22T09:27:50;7.20;99.90
15455;DHT22;21057;51.024;7.540;2023-12-22T09:30:17;7.10;99.90
15455;DHT22;21057;51.024;7.540;2023-12-22T09:32:44;7.10;99.90
15455;DHT22;21057;51.024;7.540;2023-12-22T09:35:11;7.10;99.90
15455;DHT22;21057;51.024;7.540;2023-12-22T09:37:37;7.20;99.90
15455;DHT22;21057;51.024;7.540;2023-12-22T09:40:06;7.30;99.90
15455;DHT22;21057;51.024;7.540;2023-12-22T09:42:36;7.50;99.90
15455;DHT22;21057;51.024;7.540;2023-12-22T09:45:06;7.60;99.90
15455;DHT22;21057;51.024;7.540;2023-12-22T09:47:35;7.60;99.90
15455;DHT22;21057;51.024;7.540;2023-12-22T09:50:02;7.70;99.90
15455;DHT22;21057;51.024;7.540;2023-12-22T09:52:29;7.80;99.90
15455;DHT22;21057;51.024;7.540;2023-12-22T09:54:57;7.60;99.90
15455;DHT22;21057;51.024;7.540;2023-12-22T09:57:26;7.50;99.90
15455;DHT22;21057;51.024;7.540;2023-12-22T09:59:53;7.40;99.90
15455;DHT22;21057;51.024;7.540;2023-12-22T10:02:24;7.40;99.90
15455;DHT22;21057;51.024;7.540;2023-12-22T10:04:52;7.40;99.90
15455;DHT22;21057;51.024;7.540;2023-12-22T10:07:20;7.60;99.90
15455;DHT22;21057;51.024;7.540;2023-12-22T10:09:47;7.50;99.90
15455;DHT22;21057;51.024;7.540;2023-12-22T10:12:14;7.40;99.90
15455;DHT22;21057;51.024;7.540;2023-12-22T10:14:43;7.40;99.90
15455;DHT22;21057;51.024;7.540;2023-12-22T10:17:09;7.50;99.90
15455;DHT22;21057;51.024;7.540;2023-12-22T10:19:38;7.40;99.90
15455;DHT22;21057;51.024;7.540;2023-12-22T10:22:05;7.40;99.90
15455;DHT22;21057;51.024;7.540;2023-12-22T10:24:39;7.30;99.90
15455;DHT22;21057;51.024;7.540;2023-12-22T10:27:08;7.40;99.90
15455;DHT22;21057;51.024;7.540;2023-12-22T10:29:35;7.50;99.90
15455;DHT22;21057;51.024;7.540;2023-12-22T10:32:02;7.40;99.90
15455;DHT22;21057;51.024;7.540;2023-12-22T10:34:29;7.50;99.90
15455;DHT22;21057;51.024;7.540;2023-12-22T10:36:59;7.60;99.90
15455;DHT22;21057;51.024;7.540;2023-12-22T10:39:27;7.60;99.90
15455;DHT22;21057;51.024;7.540;2023-12-22T10:41:54;7.60;99.90
15455;DHT22;21057;51.024;7.540;2023-12-22T10:44:23;7.50;99.90
15455;DHT22;21057;51.024;7.540;2023-12-22T10:46:50;7.40;99.90
15455;DHT22;21057;51.024;7.540;2023-12-22T10:49:17;7.50;99.90
15455;DHT22;21057;51.024;7.540;2023-12-22T10:51:44;7.50;99.90
15455;DHT22;21057;51.024;7.540;2023-12-22T10:54:13;7.70;99.90
15455;DHT22;21057;51.024;7.540;2023-12-22T10:56:40;7.70;99.90
15455;DHT22;21057;51.024;7.540;2023-12-22T10:59:07;7.60;99.90
15455;DHT22;21057;51.024;7.540;2023-12-22T11:01:36;7.60;99.90
15455;DHT22;21057;51.024;7.540;2023-12-22T11:04:06;7.80;99.90
15455;DHT22;21057;51.024;7.540;2023-12-22T11:06:34;8.10;99.90
15455;DHT22;21057;51.024;7.540;2023-12-22T11:09:05;8.00;99.90
15455;DHT22;21057;51.024;7.540;2023-12-22T11:11:35;8.10;99.90
15455;DHT22;21057;51.024;7.540;2023-12-22T11:14:03;8.20;99.90
15455;DHT22;21057;51.024;7.540;2023-12-22T11:16:31;8.20;99.90
15455;DHT22;21057;51.024;7.540;2023-12-22T11:18:59;8.10;99.90
15455;DHT22;21057;51.024;7.540;2023-12-22T11:21:27;7.90;99.90
15455;DHT22;21057;51.024;7.540;2023-12-22T11:23:56;7.90;99.90
15455;DHT22;21057;51.024;7.540;2023-12-22T11:26:24;7.90;99.90
15455;DHT22;21057;51.024;7.540;2023-12-22T11:28:53;7.80;99.90
15455;DHT22;21057;51.024;7.540;2023-12-22T11:31:20;7.70;99.90
15455;DHT22;21057;51.024;7.540;2023-12-22T11:33:48;7.80;99.90
15455;DHT22;21057;51.024;7.540;2023-12-22T11:36:16;7.90;99.90
15455;DHT22;21057;51.024;7.540;2023-12-22T11:38:45;8.00;99.90
15455;DHT22;21057;51.024;7.540;2023-12-22T11:41:16;8.10;99.90
15455;DHT22;21057;51.024;7.540;2023-12-22T11:43:44;8.10;99.90
15455;DHT22;21057;51.024;7.540;2023-12-22T11:46:16;8.00;99.90
15455;DHT22;21057;51.024;7.540;2023-12-22T11:48:47;8.20;99.90
15455;DHT22;21057;51.024;7.540;2023-12-22T11:51:15;8.20;99.90
15455;DHT22;21057;51.024;7.540;2023-12-22T11:53:42;8.20;99.90
15455;DHT22;21057;51.024;7.540;2023-12-22T11:56:10;8.20;99.90
15455;DHT22;21057;51.024;7.540;2023-12-22T11:58:39;8.30;99.90
15455;DHT22;21057;51.024;7.540;2023-12-22T12:01:07;8.40;99.90
15455;DHT22;21057;51.024;7.540;2023-12-22T12:03:40;8.40;99.90
15455;DHT22;21057;51.024;7.540;2023-12-22T12:06:22;8.40;99.90
15455;DHT22;21057;51.024;7.540;2023-12-22T12:08:49;8.40;99.90
15455;DHT22;21057;51.024;7.540;2023-12-22T12:11:16;8.40;99.90
15455;DHT22;21057;51.024;7.540;2023-12-22T12:13:45;8.50;99.90
15455;DHT22;21057;51.024;7.540;2023-12-22T12:16:12;8.40;99.90
15455;DHT22;21057;51.024;7.540;2023-12-22T12:18:41;8.40;99.90
15455;DHT22;21057;51.024;7.540;2023-12-22T12:21:10;8.40;99.90
15455;DHT22;21057;51.024;7.540;2023-12-22T12:23:37;8.40;99.90
15455;DHT22;21057;51.024;7.540;2023-12-22T12:26:06;8.60;99.90
15455;DHT22;21057;51.024;7.540;2023-12-22T12:28:35;8.40;99.90
15455;DHT22;21057;51.024;7.540;2023-12-22T12:31:04;8.30;99.90
15455;DHT22;21057;51.024;7.540;2023-12-22T12:33:32;8.50;99.90
15455;DHT22;21057;51.024;7.540;2023-12-22T12:36:01;8.60;99.90
15455;DHT22;21057;51.024;7.540;2023-12-22T12:38:37;8.70;99.90
15455;DHT22;21057;51.024;7.540;2023-12-22T12:41:09;8.60;99.90
15455;DHT22;21057;51.024;7.540;2023-12-22T12:43:41;8.50;99.90
15455;DHT22;21057;51.024;7.540;2023-12-22T12:46:08;8.70;99.90
15455;DHT22;21057;51.024;7.540;2023-12-22T12:48:36;8.80;99.90
15455;DHT22;21057;51.024;7.540;2023-12-22T12:51:05;8.90;99.90
15455;DHT22;21057;51.024;7.540;2023-12-22T12:53:33;9.00;99.90
15455;DHT22;21057;51.024;7.540;2023-12-22T12:55:59;8.90;99.90
15455;DHT22;21057;51.024;7.540;2023-12-22T12:58:30;8.80;99.90
15455;DHT22;21057;51.024;7.540;2023-12-22T13:01:04;8.90;99.90
15455;DHT22;21057;51.024;7.540;2023-12-22T13:03:32;8.90;99.90
15455;DHT22;21057;51.024;7.540;2023-12-22T13:06:09;8.90;99.90
15455;DHT22;21057;51.024;7.540;2023-12-22T13:08:36;8.70;99.90
15455;DHT22;21057;51.024;7.540;2023-12-22T13:11:06;8.80;99.90
15455;DHT22;21057;51.024;7.540;2023-12-22T13:13:41;9.00;99.90
15455;DHT22;21057;51.024;7.540;2023-12-22T13:16:08;9.00;99.90
15455;DHT22;21057;51.024;7.540;2023-12-22T13:18:35;8.90;99.90
15455;DHT22;21057;51.024;7.540;2023-12-22T13:21:03;9.00;99.90
15455;DHT22;21057;51.024;7.540;2023-12-22T13:23:31;8.90;99.90
15455;DHT22;21057;51.024;7.540;2023-12-22T13:25:58;8.80;99.90
15455;DHT22;21057;51.024;7.540;2023-12-22T13:28:25;8.90;99.90
15455;DHT22;21057;51.024;7.540;2023-12-22T13:30:52;8.90;99.90
15455;DHT22;21057;51.024;7.540;2023-12-22T13:33:20;8.90;99.90
15455;DHT22;21057;51.024;7.540;2023-12-22T13:35:47;8.90;99.90
15455;DHT22;21057;51.024;7.540;2023-12-22T13:38:14;8.90;99.90
15455;DHT22;21057;51.024;7.540;2023-12-22T13:40:46;9.00;99.90
15455;DHT22;21057;51.024;7.540;2023-12-22T13:43:12;9.20;99.90
15455;DHT22;21057;51.024;7.540;2023-12-22T13:45:39;9.10;99.90
15455;DHT22;21057;51.024;7.540;2023-12-22T13:48:07;9.00;99.90
15455;DHT22;21057;51.024;7.540;2023-12-22T13:50:34;9.00;99.90
15455;DHT22;21057;51.024;7.540;2023-12-22T13:53:07;9.10;99.90
15455;DHT22;21057;51.024;7.540;2023-12-22T13:55:34;9.20;99.90
15455;DHT22;21057;51.024;7.540;2023-12-22T13:58:04;9.10;99.90
15455;DHT22;21057;51.024;7.540;2023-12-22T14:00:31;8.90;99.90
15455;DHT22;21057;51.024;7.540;2023-12-22T14:02:58;8.90;99.90
15455;DHT22;21057;51.024;7.540;2023-12-22T14:05:24;9.00;99.90
15455;DHT22;21057;51.024;7.540;2023-12-22T14:07:52;8.90;99.90
15455;DHT22;21057;51.024;7.540;2023-12-22T14:10:19;9.10;99.90
15455;DHT22;21057;51.024;7.540;2023-12-22T14:12:45;8.90;99.90
15455;DHT22;21057;51.024;7.540;2023-12-22T14:15:14;8.90;99.90
15455;DHT22;21057;51.024;7.540;2023-12-22T14:17:41;8.80;99.90
15455;DHT22;21057;51.024;7.540;2023-12-22T14:20:08;8.80;99.90
15455;DHT22;21057;51.024;7.540;2023-12-22T14:22:36;8.70;99.90
15455;DHT22;21057;51.024;7.540;2023-12-22T14:25:04;8.90;99.90
15455;DHT22;21057;51.024;7.540;2023-12-22T14:27:31;8.80;99.90
15455;DHT22;21057;51.024;7.540;2023-12-22T14:29:58;8.70;99.90
15455;DHT22;21057;51.024;7.540;2023-12-22T14:32:26;8.80;99.90
15455;DHT22;21057;51.024;7.540;2023-12-22T14:34:55;8.90;99.90
15455;DHT22;21057;51.024;7.540;2023-12-22T14:37:22;8.90;99.90
15455;DHT22;21057;51.024;7.540;2023-12-22T14:39:49;8.90;99.90
15455;DHT22;21057;51.024;7.540;2023-12-22T14:42:15;9.00;99.90
15455;DHT22;21057;51.024;7.540;2023-12-22T14:44:42;8.90;99.90
15455;DHT22;21057;51.024;7.540;2023-12-22T14:47:09;8.80;99.90
15455;DHT22;21057;51.024;7.540;2023-12-22T14:49:37;8.80;99.90
15455;DHT22;21057;51.024;7.540;2023-12-22T14:52:04;8.80;99.90
15455;DHT22;21057;51.024;7.540;2023-12-22T14:54:31;8.70;99.90
15455;DHT22;21057;51.024;7.540;2023-12-22T14:56:58;8.80;99.90
15455;DHT22;21057;51.024;7.540;2023-12-22T14:59:24;8.70;99.90
15455;DHT22;21057;51.024;7.540;2023-12-22T15:01:50;8.80;99.90
15455;DHT22;21057;51.024;7.540;2023-12-22T15:04:17;8.90;99.90
15455;DHT22;21057;51.024;7.540;2023-12-22T15:06:46;8.90;99.90
15455;DHT22;21057;51.024;7.540;2023-12-22T15:09:13;8.70;99.90
15455;DHT22;21057;51.024;7.540;2023-12-22T15:11:43;8.70;99.90
15455;DHT22;21057;51.024;7.540;2023-12-22T15:14:09;8.80;99.90
15455;DHT22;21057;51.024;7.540;2023-12-22T15:16:39;8.80;99.90
15455;DHT22;21057;51.024;7.540;2023-12-22T15:19:06;8.70;99.90
15455;DHT22;21057;51.024;7.540;2023-12-22T15:21:33;8.70;99.90
15455;DHT22;21057;51.024;7.540;2023-12-22T15:24:01;8.60;99.90
15455;DHT22;21057;51.024;7.540;2023-12-22T15:26:28;8.70;99.90
15455;DHT22;21057;51.024;7.540;2023-12-22T15:28:55;8.60;99.90
15455;DHT22;21057;51.024;7.540;2023-12-22T15:31:22;8.70;99.90
15455;DHT22;21057;51.024;7.540;2023-12-22T15:33:50;8.70;99.90
15455;DHT22;21057;51.024;7.540;2023-12-22T15:36:17;8.70;99.90
15455;DHT22;21057;51.024;7.540;2023-12-22T15:38:44;8.60;99.90
15455;DHT22;21057;51.024;7.540;2023-12-22T15:41:13;8.70;99.90
15455;DHT22;21057;51.024;7.540;2023-12-22T15:43:41;8.70;99.90
15455;DHT22;21057;51.024;7.540;2023-12-22T15:46:08;8.70;99.90
15455;DHT22;21057;51.024;7.540;2023-12-22T15:48:36;8.50;99.90
15455;DHT22;21057;51.024;7.540;2023-12-22T15:51:06;8.60;99.90